Map

Track Data

SID SEASON NUMBER BASIN SUBBASIN NAME ISO_TIME NATURE LAT LON WMO_WIND WMO_PRES WMO_AGENCY TRACK_TYPE DIST2LAND LANDFALL IFLAG USA_AGENCY USA_ATCF_ID USA_LAT USA_LON USA_RECORD USA_STATUS USA_WIND USA_PRES USA_SSHS USA_R34_NE USA_R34_SE USA_R34_SW USA_R34_NW USA_R50_NE USA_R50_SE USA_R50_SW USA_R50_NW USA_R64_NE USA_R64_SE USA_R64_SW USA_R64_NW USA_POCI USA_ROCI USA_RMW USA_EYE TOKYO_LAT TOKYO_LON TOKYO_GRADE TOKYO_WIND TOKYO_PRES TOKYO_R50_DIR TOKYO_R50_LONG TOKYO_R50_SHORT TOKYO_R30_DIR TOKYO_R30_LONG TOKYO_R30_SHORT TOKYO_LAND CMA_LAT CMA_LON CMA_CAT CMA_WIND CMA_PRES HKO_LAT HKO_LON HKO_CAT HKO_WIND HKO_PRES NEWDELHI_LAT NEWDELHI_LON NEWDELHI_GRADE NEWDELHI_WIND NEWDELHI_PRES NEWDELHI_CI NEWDELHI_DP NEWDELHI_POCI REUNION_LAT REUNION_LON REUNION_TYPE REUNION_WIND REUNION_PRES REUNION_TNUM REUNION_CI REUNION_RMW REUNION_R34_NE REUNION_R34_SE REUNION_R34_SW REUNION_R34_NW REUNION_R50_NE REUNION_R50_SE REUNION_R50_SW REUNION_R50_NW REUNION_R64_NE REUNION_R64_SE REUNION_R64_SW REUNION_R64_NW BOM_LAT BOM_LON BOM_TYPE BOM_WIND BOM_PRES BOM_TNUM BOM_CI BOM_RMW BOM_R34_NE BOM_R34_SE BOM_R34_SW BOM_R34_NW BOM_R50_NE BOM_R50_SE BOM_R50_SW BOM_R50_NW BOM_R64_NE BOM_R64_SE BOM_R64_SW BOM_R64_NW BOM_ROCI BOM_POCI BOM_EYE BOM_POS_METHOD BOM_PRES_METHOD NADI_LAT NADI_LON NADI_CAT NADI_WIND NADI_PRES WELLINGTON_LAT WELLINGTON_LON WELLINGTON_WIND WELLINGTON_PRES DS824_LAT DS824_LON DS824_STAGE DS824_WIND DS824_PRES TD9636_LAT TD9636_LON TD9636_STAGE TD9636_WIND TD9636_PRES TD9635_LAT TD9635_LON TD9635_WIND TD9635_PRES TD9635_ROCI NEUMANN_LAT NEUMANN_LON NEUMANN_CLASS NEUMANN_WIND NEUMANN_PRES MLC_LAT MLC_LON MLC_CLASS MLC_WIND MLC_PRES USA_GUST BOM_GUST BOM_GUST_PER REUNION_GUST REUNION_GUST_PER USA_SEAHGT USA_SEARAD_NE USA_SEARAD_SE USA_SEARAD_SW USA_SEARAD_NW STORM_SPEED STORM_DIR
1986212S08085 1987 72 SI MM NOT_NAMED 1986-07-30 12:00:00 TS -7.70000 84.8000 main 1593 1581 O_________O_O_ jtwc_sh SH011987 -7.70000 84.8000 30 -1 -7.70000 84.8000 1 30 -7.70000 84.8000 TC 30 8 270
1986212S08085 1987 72 SI MM NOT_NAMED 1986-07-30 15:00:00 TS -7.70107 84.4015 main 1581 1570 P_________P_P_ SH011987 -7.69759 84.3975 30 -1 -7.70803 84.4094 1 30 -7.69759 84.3975 TC 30 8 270
1986212S08085 1987 72 SI MM NOT_NAMED 1986-07-30 18:00:00 TS -7.70424 84.0050 main 1570 1559 O_________P_O_ jtwc_sh SH011987 -7.70000 84.0000 30 -1 -7.71271 84.0150 1 30 -7.70000 84.0000 TC 30 8 269
1986212S08085 1987 72 SI MM NOT_NAMED 1986-07-30 21:00:00 TS -7.70864 83.6094 main 1559 1551 P_________P_P_ SH011987 -7.70744 83.6075 30 -1 -7.71104 83.6131 1 30 -7.70744 83.6075 TC 30 8 270
1986212S08085 1987 72 SI MM NOT_NAMED 1986-07-31 00:00:00 TS -7.70000 83.2000 main 1551 1543 O_________O_O_ jtwc_sh SH011987 -7.70000 83.2000 30 -1 -7.70000 83.2000 1 30 -7.70000 83.2000 TC 30 8 273
1986212S08085 1987 72 SI MM NOT_NAMED 1986-07-31 03:00:00 TS -7.65936 82.7580 main 1543 1524 P_________P_P_ SH011987 -7.65000 82.7500 30 -1 -7.67809 82.7740 1 30 -7.65000 82.7500 TC 30 9 275
1986212S08085 1987 72 SI MM NOT_NAMED 1986-07-31 06:00:00 TS -7.61665 82.3141 main 1524 1519 O_________P_O_ jtwc_sh SH011987 -7.60000 82.3000 30 -1 -7.64996 82.3424 1 30 -7.60000 82.3000 TC 30 9 274
1986212S08085 1987 72 SI MM NOT_NAMED 1986-07-31 09:00:00 TS -7.60226 81.8949 main 1519 1516 P_________P_P_ SH011987 -7.59246 81.8850 30 -1 -7.62184 81.9146 1 30 -7.59246 81.8850 TC 30 8 271
1986212S08085 1987 72 SI MM NOT_NAMED 1986-07-31 12:00:00 TS -7.60000 81.5000 main 1516 1514 O_________O_O_ jtwc_sh SH011987 -7.60000 81.5000 30 -1 -7.60000 81.5000 1 30 -7.60000 81.5000 TC 30 7 270
1986212S08085 1987 72 SI MM NOT_NAMED 1986-07-31 15:00:00 TS -7.59749 81.1396 main 1513 1512 P_________P_P_ SH011987 -7.59993 81.1500 32 -1 -7.59260 81.1188 1 32 -7.59993 81.1500 TC 32 7 270
1986212S08085 1987 72 SI MM NOT_NAMED 1986-07-31 18:00:00 TS -7.59740 80.7833 main 1512 1512 O_________P_O_ jtwc_sh SH011987 -7.60000 80.8000 35 0 -7.59221 80.7500 1 35 -7.60000 80.8000 TC 35 7 270
1986212S08085 1987 72 SI MM NOT_NAMED 1986-07-31 21:00:00 TS -7.59858 80.3938 main 1512 1512 P_________P_P_ SH011987 -7.60000 80.4000 37 0 -7.59573 80.3813 1 37 -7.60000 80.4000 TC 37 8 270
1986212S08085 1987 72 SI MM NOT_NAMED 1986-08-01 00:00:00 TS -7.60000 80.0000 main 1514 1514 O_________O_O_ jtwc_sh SH011987 -7.60000 80.0000 40 0 -7.60000 80.0000 2 40 -7.60000 80.0000 TC 40 8 270
1986212S08085 1987 72 SI MM NOT_NAMED 1986-08-01 03:00:00 TS -7.59994 79.6357 main 1516 1516 P_________P_P_ SH011987 -7.59989 79.6650 42 0 -7.60002 79.5772 2 40 -7.59989 79.6650 TC 42 7 270
1986212S08085 1987 72 SI MM NOT_NAMED 1986-08-01 06:00:00 TS -7.60001 79.2475 main 1520 1520 O_________P_O_ jtwc_sh SH011987 -7.60000 79.3000 45 0 -7.60004 79.1425 2 40 -7.60000 79.3000 TC 45 9 270
1986212S08085 1987 72 SI MM NOT_NAMED 1986-08-01 09:00:00 TS -7.60006 78.7705 main 1525 1525 P_________P_P_ SH011987 -7.60008 78.8000 42 0 -7.60003 78.7116 2 40 -7.60008 78.8000 TC 42 9 270
1986212S08085 1987 72 SI MM NOT_NAMED 1986-08-01 12:00:00 TS -7.60000 78.3000 main 1534 1534 O_________O_O_ jtwc_sh SH011987 -7.60000 78.3000 40 0 -7.60000 78.3000 2 40 -7.60000 78.3000 TC 40 8 270
1986212S08085 1987 72 SI MM NOT_NAMED 1986-08-01 15:00:00 TS -7.60259 77.9278 main 1542 1542 P_________P_P_ SH011987 -7.59991 77.9275 37 0 -7.60795 77.9285 2 38 -7.59991 77.9275 TC 37 7 270
1986212S08085 1987 72 SI MM NOT_NAMED 1986-08-01 18:00:00 TS -7.60492 77.5925 main 1549 1549 O_________P_O_ jtwc_sh SH011987 -7.60000 77.6000 35 0 -7.61477 77.5776 2 37 -7.60000 77.6000 TC 35 7 270
1986212S08085 1987 72 SI MM NOT_NAMED 1986-08-01 21:00:00 TS -7.60472 77.2460 main 1559 1559 P_________P_P_ SH011987 -7.59997 77.2500 35 0 -7.61422 77.2379 2 36 -7.59997 77.2500 TC 35 7 270
1986212S08085 1987 72 SI MM NOT_NAMED 1986-08-02 00:00:00 TS -7.60000 76.9000 main 1567 1567 O_________O_O_ jtwc_sh SH011987 -7.60000 76.9000 35 0 -7.60000 76.9000 2 35 -7.60000 76.9000 TC 35 7 270
1986212S08085 1987 72 SI MM NOT_NAMED 1986-08-02 03:00:00 TS -7.60213 76.5514 main 1576 1576 P_________P_P_ SH011987 -7.61497 76.5500 32 -1 -7.57645 76.5541 2 33 -7.61497 76.5500 TC 32 7 272
1986212S08085 1987 72 SI MM NOT_NAMED 1986-08-02 06:00:00 TS -7.57912 76.2025 main 1589 1586 O_________P_O_ jtwc_sh SH011987 -7.60000 76.2000 30 -1 -7.53735 76.2076 2 32 -7.60000 76.2000 TC 30 7 278
1986212S08085 1987 72 SI MM NOT_NAMED 1986-08-02 09:00:00 TS -7.50816 75.8574 main 1589 1589 P_________P_P_ SH011987 -7.52245 75.8575 30 -1 -7.47957 75.8572 2 31 -7.52245 75.8575 TC 30 7 284
1986212S08085 1987 72 SI MM NOT_NAMED 1986-08-02 12:00:00 TS -7.40000 75.5000 main 1593 1590 O_________O_O_ jtwc_sh SH011987 -7.40000 75.5000 30 -1 -7.40000 75.5000 1 30 -7.40000 75.5000 TC 30 8 288
1986212S08085 1987 72 SI MM NOT_NAMED 1986-08-02 15:00:00 TS -7.25878 75.1012 main 1598 1587 P_________P_P_ SH011987 -7.25000 75.1000 30 -1 -7.27633 75.1036 1 30 -7.25000 75.1000 TC 30 8 290
1986212S08085 1987 72 SI MM NOT_NAMED 1986-08-02 18:00:00 TS -7.11171 74.7016 main 1594 1592 O_________P_O_ jtwc_sh SH011987 -7.10000 74.7000 30 -1 -7.13513 74.7048 1 30 -7.10000 74.7000 TC 30 8 289
1986212S08085 1987 72 SI MM NOT_NAMED 1986-08-02 21:00:00 TS -6.99044 74.3279 main 1601 1596 P_________P_P_ SH011987 -6.98499 74.3275 30 -1 -7.00134 74.3286 1 30 -6.98499 74.3275 TC 30 7 287
1986212S08085 1987 72 SI MM NOT_NAMED 1986-08-03 00:00:00 TS -6.90000 74.0000 main 1606 1605 O_________O_O_ jtwc_sh SH011987 -6.90000 74.0000 30 -1 -6.90000 74.0000 1 30 -6.90000 74.0000 TC 30 6 285
1986212S08085 1987 72 SI MM NOT_NAMED 1986-08-03 03:00:00 TS -6.83486 73.7256 main 1610 1610 P_________P_P_ SH011987 -6.82748 73.7200 27 -1 -6.84961 73.7367 1 28 -6.82748 73.7200 TC 27 5 280
1986212S08085 1987 72 SI MM NOT_NAMED 1986-08-03 06:00:00 TS -6.81413 73.5092 main 1621 1621 O_________P_O_ jtwc_sh SH011987 -6.80000 73.5000 25 -1 -6.84240 73.5277 1 27 -6.80000 73.5000 TC 25 4 269
1986212S08085 1987 72 SI MM NOT_NAMED 1986-08-03 09:00:00 TS -6.84301 73.3416 main 1631 1631 P_________P_P_ SH011987 -6.83251 73.3350 25 -1 -6.86401 73.3548 1 26 -6.83251 73.3350 TC 25 3 254
1986212S08085 1987 72 SI MM NOT_NAMED 1986-08-03 12:00:00 TS -6.90000 73.2000 main 1646 O_________O_O_ jtwc_sh SH011987 -6.90000 73.2000 25 -1 -6.90000 73.2000 1 25 -6.90000 73.2000 TC 25 3 248

About IBTrACS Database

This database is a web-friendly format of International Best Track Archive for Climate Stewardship (IBTrACS), a global best track data archive curated by NOAA dating back to 1842.

Updated: 2021-10-27